createdAt,value
2023-02-09T00:01:26.451Z,103087.06
2023-02-09T00:06:31.635Z,103080.50
2023-02-09T00:11:55.653Z,103069.56
2023-02-09T00:16:59.492Z,103085.06
2023-02-09T00:22:06.688Z,103091.06
2023-02-09T00:27:10.749Z,103090.50
2023-02-09T00:32:14.579Z,103087.97
2023-02-09T00:37:19.706Z,103092.88
2023-02-09T00:42:23.451Z,103090.53
2023-02-09T00:47:28.022Z,103095.84
2023-02-09T00:52:33.176Z,103093.63
2023-02-09T00:57:37.079Z,103096.75
2023-02-09T01:02:41.036Z,103091.47
2023-02-09T01:07:46.097Z,103090.00
2023-02-09T01:12:52.606Z,103083.81
2023-02-09T01:17:56.381Z,103088.75
2023-02-09T01:23:03.474Z,103077.81
2023-02-09T01:28:07.356Z,103087.13
2023-02-09T01:33:11.126Z,103090.75
2023-02-09T01:38:16.244Z,103090.94
2023-02-09T01:43:20.148Z,103087.31
2023-02-09T01:48:29.464Z,103090.00
2023-02-09T01:53:35.037Z,103089.09
2023-02-09T01:58:40.347Z,103084.41
2023-02-09T02:03:44.878Z,103081.31
2023-02-09T02:08:56.533Z,103075.28
2023-02-09T02:14:00.599Z,103077.47
2023-02-09T02:19:32.832Z,103071.81
2023-02-09T02:24:57.021Z,103065.66
2023-02-09T02:30:17.298Z,103064.72
2023-02-09T02:35:33.108Z,103069.25
2023-02-09T02:40:48.879Z,103056.16
2023-02-09T02:45:58.463Z,103051.81
2023-02-09T02:51:07.255Z,103044.53
2023-02-09T02:56:16.393Z,103044.34
2023-02-09T03:01:24.721Z,103041.22
2023-02-09T03:06:32.406Z,103021.06
2023-02-09T03:11:40.159Z,103025.41
2023-02-09T03:16:47.191Z,103032.28
2023-02-09T03:21:56.917Z,103034.28
2023-02-09T03:27:05.796Z,103023.37
2023-02-09T03:32:10.343Z,103025.16
2023-02-09T03:37:15.656Z,103034.75
2023-02-09T03:42:19.414Z,103023.16
2023-02-09T03:47:23.148Z,103012.78
2023-02-09T03:52:28.238Z,103012.03
2023-02-09T03:57:32.018Z,102999.84
2023-02-09T04:02:35.821Z,102994.06
2023-02-09T04:07:41.082Z,102992.00
2023-02-09T04:12:44.809Z,102974.66
2023-02-09T04:17:50.759Z,102969.88
2023-02-09T04:22:55.948Z,102962.97
2023-02-09T04:27:59.745Z,102972.22
2023-02-09T04:33:03.542Z,102978.03
2023-02-09T04:38:08.649Z,102986.41
2023-02-09T04:43:12.507Z,102984.41
2023-02-09T04:48:17.924Z,102974.97
2023-02-09T04:53:23.535Z,102975.19
2023-02-09T04:58:45.023Z,102982.63
2023-02-09T05:03:48.845Z,102967.88
2023-02-09T05:08:53.965Z,102976.41
2023-02-09T05:13:57.784Z,102996.75
2023-02-09T05:19:01.580Z,103003.50
2023-02-09T05:24:07.634Z,103006.59
2023-02-09T05:29:11.471Z,103008.78
2023-02-09T05:34:15.196Z,103008.91
2023-02-09T05:39:20.441Z,103011.97
2023-02-09T05:44:24.624Z,102986.91
2023-02-09T05:49:28.396Z,102985.47
2023-02-09T05:54:34.121Z,102976.22
2023-02-09T05:59:37.902Z,102991.22
2023-02-09T06:04:41.731Z,102987.78
2023-02-09T06:09:46.819Z,102998.28
2023-02-09T06:14:50.552Z,102996.06
2023-02-09T06:19:54.306Z,102988.28
2023-02-09T06:24:59.464Z,102992.97
2023-02-09T06:30:03.305Z,103010.94
2023-02-09T06:35:07.529Z,103004.44
2023-02-09T06:40:13.726Z,103021.03
2023-02-09T06:45:18.531Z,103034.69
2023-02-09T06:50:22.334Z,103043.19
2023-02-09T06:55:27.740Z,103058.72
2023-02-09T07:00:32.100Z,103056.06
2023-02-09T07:05:35.847Z,103058.91
2023-02-09T07:10:42.737Z,103069.12
2023-02-09T07:15:46.510Z,103073.56
2023-02-09T07:20:55.118Z,103072.00
2023-02-09T07:26:04.264Z,103072.38
2023-02-09T07:31:10.729Z,103060.44
2023-02-09T07:36:16.475Z,103062.81
2023-02-09T07:41:25.162Z,103064.63
2023-02-09T07:46:28.929Z,103064.69
2023-02-09T07:51:34.276Z,103064.50
2023-02-09T07:56:39.421Z,103059.03
2023-02-09T08:01:43.495Z,103051.09
2023-02-09T08:06:54.449Z,103036.63
2023-02-09T08:12:04.006Z,103042.78
2023-02-09T08:17:21.403Z,103045.94
2023-02-09T08:22:29.400Z,103052.00
2023-02-09T08:27:34.484Z,103044.91
2023-02-09T08:32:38.148Z,103051.69
2023-02-09T08:37:42.022Z,103045.38
2023-02-09T08:42:47.124Z,103031.94
2023-02-09T08:47:51.212Z,103045.78
2023-02-09T08:52:58.019Z,103044.31
2023-02-09T08:58:03.109Z,103072.00
2023-02-09T09:03:06.956Z,103074.34
2023-02-09T09:08:10.786Z,103070.56
2023-02-09T09:13:15.984Z,103078.75
2023-02-09T09:18:20.083Z,103068.56
2023-02-09T09:23:23.938Z,103068.19
2023-02-09T09:28:29.386Z,103068.53
2023-02-09T09:33:33.342Z,103071.47
2023-02-09T09:38:38.656Z,103064.16
2023-02-09T09:43:44.072Z,103047.22
2023-02-09T09:48:51.905Z,103064.25
2023-02-09T09:53:57.378Z,103055.16
2023-02-09T09:59:02.891Z,103060.94
2023-02-09T10:04:14.400Z,103056.78
2023-02-09T10:09:30.042Z,103056.63
2023-02-09T10:14:37.435Z,103062.78
2023-02-09T10:19:41.450Z,103072.12
2023-02-09T10:24:45.308Z,103085.75
2023-02-09T10:29:50.431Z,103095.06
2023-02-09T10:34:56.950Z,103113.25
2023-02-09T10:40:08.928Z,103118.66
2023-02-09T10:45:26.410Z,103108.59
2023-02-09T10:50:30.428Z,103095.66
2023-02-09T10:55:37.076Z,103112.50
2023-02-09T11:00:50.144Z,103112.34
2023-02-09T11:06:03.412Z,103098.72
2023-02-09T11:11:12.128Z,103107.84
2023-02-09T11:16:45.417Z,103113.56
2023-02-09T11:22:01.753Z,103112.34
2023-02-09T11:27:13.655Z,103107.41
2023-02-09T11:32:21.674Z,103098.94
2023-02-09T11:37:31.586Z,103106.56
2023-02-09T11:42:47.013Z,103108.66
2023-02-09T11:48:01.717Z,103102.94
2023-02-09T11:53:13.157Z,103093.00
2023-02-09T11:58:32.042Z,103085.06
2023-02-09T12:03:37.190Z,103094.31
2023-02-09T12:09:04.173Z,103097.31
2023-02-09T12:14:19.376Z,103090.44
2023-02-09T12:19:35.383Z,103091.97
2023-02-09T12:24:41.424Z,103096.56
2023-02-09T12:29:45.197Z,103104.22
2023-02-09T12:34:52.386Z,103099.22
2023-02-09T12:40:22.564Z,103093.41
2023-02-09T12:45:36.842Z,103096.09
2023-02-09T12:50:54.257Z,103073.72
2023-02-09T12:56:24.092Z,103079.06
2023-02-09T13:02:01.181Z,103073.22
2023-02-09T13:07:13.862Z,103078.72
2023-02-09T13:12:21.176Z,103069.81
2023-02-09T13:17:36.190Z,103064.69
2023-02-09T13:22:57.605Z,103073.72
2023-02-09T13:28:10.674Z,103064.22
2023-02-09T13:33:28.253Z,103061.94
2023-02-09T13:38:35.937Z,103060.75
2023-02-09T13:43:40.462Z,103052.44
2023-02-09T13:48:44.256Z,103046.69
2023-02-09T13:53:58.987Z,103062.09
2023-02-09T13:59:03.020Z,103062.62
2023-02-09T14:04:12.625Z,103061.66
2023-02-09T14:09:21.878Z,103067.69
2023-02-09T14:14:49.654Z,103084.44
2023-02-09T14:19:54.337Z,103088.41
2023-02-09T14:24:59.716Z,103083.06
2023-02-09T14:30:03.530Z,103089.09
2023-02-09T14:35:18.318Z,103078.34
2023-02-09T14:40:29.920Z,103068.97
2023-02-09T14:45:39.942Z,103089.25
2023-02-09T14:50:43.728Z,103087.06
2023-02-09T14:55:49.003Z,103087.91
2023-02-09T15:00:54.311Z,103091.09
2023-02-09T15:06:00.204Z,103096.88
2023-02-09T15:11:28.157Z,103100.22
2023-02-09T15:16:32.625Z,103104.16
2023-02-09T15:21:36.409Z,103109.13
2023-02-09T15:26:41.671Z,103111.69
2023-02-09T15:31:45.523Z,103111.25
2023-02-09T15:36:49.435Z,103130.41
2023-02-09T15:42:12.196Z,103136.78
2023-02-09T15:47:33.597Z,103148.06
2023-02-09T15:52:37.360Z,103153.22
2023-02-09T15:57:42.542Z,103142.78
2023-02-09T16:02:47.826Z,103157.31
2023-02-09T16:07:52.994Z,103158.63
2023-02-09T16:12:58.439Z,103152.13
2023-02-09T16:18:02.243Z,103153.62
2023-02-09T16:23:19.890Z,103167.34
2023-02-09T16:28:26.149Z,103155.16
2023-02-09T16:33:29.981Z,103164.38
2023-02-09T16:38:33.713Z,103175.84
2023-02-09T16:43:38.762Z,103196.22
2023-02-09T16:48:46.629Z,103204.22
2023-02-09T16:53:52.451Z,103207.69
2023-02-09T16:58:57.606Z,103215.53
2023-02-09T17:04:03.264Z,103225.50
2023-02-09T17:09:15.064Z,103230.94
2023-02-09T17:14:20.166Z,103225.03
2023-02-09T17:19:23.963Z,103237.59
2023-02-09T17:24:27.693Z,103249.97
2023-02-09T17:29:33.867Z,103252.25
2023-02-09T17:34:37.671Z,103262.03
2023-02-09T17:39:41.835Z,103268.97
2023-02-09T17:44:47.074Z,103275.47
2023-02-09T17:49:51.068Z,103275.00
2023-02-09T17:54:54.855Z,103267.16
2023-02-09T18:00:00.024Z,103270.50
2023-02-09T18:05:03.989Z,103278.22
2023-02-09T18:10:08.835Z,103279.88
2023-02-09T18:15:22.460Z,103285.09
2023-02-09T18:20:29.270Z,103290.41
2023-02-09T18:25:35.795Z,103294.31
2023-02-09T18:30:41.201Z,103298.56
2023-02-09T18:35:46.441Z,103297.13
2023-02-09T18:40:51.700Z,103308.66
2023-02-09T18:45:56.941Z,103312.22
2023-02-09T18:51:00.972Z,103321.97
2023-02-09T18:56:05.433Z,103319.22
2023-02-09T19:01:12.512Z,103317.34
2023-02-09T19:06:16.414Z,103313.41
2023-02-09T19:11:22.752Z,103319.81
2023-02-09T19:16:28.091Z,103328.66
2023-02-09T19:21:32.455Z,103333.44
2023-02-09T19:26:36.310Z,103344.56
2023-02-09T19:31:41.764Z,103347.53
2023-02-09T19:36:45.788Z,103353.72
2023-02-09T19:41:49.538Z,103360.03
2023-02-09T19:46:54.720Z,103360.94
2023-02-09T19:51:58.948Z,103359.34
2023-02-09T19:57:04.515Z,103374.41
2023-02-09T20:02:11.382Z,103374.25
2023-02-09T20:07:15.648Z,103381.28
2023-02-09T20:12:21.862Z,103381.12
2023-02-09T20:17:28.082Z,103375.66
2023-02-09T20:22:32.374Z,103372.09
2023-02-09T20:27:36.251Z,103390.38
2023-02-09T20:32:41.673Z,103401.41
2023-02-09T20:37:45.458Z,103402.06
2023-02-09T20:43:07.091Z,103400.97
2023-02-09T20:48:12.226Z,103410.88
2023-02-09T20:53:15.951Z,103410.94
2023-02-09T20:58:20.173Z,103413.00
2023-02-09T21:03:25.356Z,103419.69
2023-02-09T21:08:29.181Z,103421.16
2023-02-09T21:13:32.978Z,103424.34
2023-02-09T21:18:38.738Z,103427.47
2023-02-09T21:23:42.924Z,103439.56
2023-02-09T21:28:48.489Z,103440.13
2023-02-09T21:33:53.760Z,103443.44
2023-02-09T21:38:57.474Z,103445.28
2023-02-09T21:44:01.483Z,103446.44
2023-02-09T21:49:07.149Z,103450.13
2023-02-09T21:54:14.153Z,103465.69
2023-02-09T21:59:18.070Z,103458.06
2023-02-09T22:04:23.199Z,103467.56
2023-02-09T22:09:27.049Z,103464.81
2023-02-09T22:14:31.298Z,103467.59
2023-02-09T22:19:36.678Z,103471.63
2023-02-09T22:24:40.486Z,103466.50
2023-02-09T22:29:45.799Z,103469.47
2023-02-09T22:34:50.934Z,103453.59
2023-02-09T22:39:54.666Z,103464.75
2023-02-09T22:44:58.428Z,103463.28
2023-02-09T22:50:03.550Z,103459.12
2023-02-09T22:55:07.876Z,103462.97
2023-02-09T23:00:14.204Z,103462.44
2023-02-09T23:05:21.561Z,103475.94
2023-02-09T23:10:25.336Z,103474.69
2023-02-09T23:15:29.157Z,103477.59
2023-02-09T23:20:34.406Z,103478.16
2023-02-09T23:25:38.147Z,103477.59
2023-02-09T23:30:41.846Z,103479.06
2023-02-09T23:35:47.233Z,103480.19
2023-02-09T23:40:51.146Z,103476.19
2023-02-09T23:45:55.043Z,103472.72
2023-02-09T23:51:01.281Z,103472.38
2023-02-09T23:56:06.262Z,103474.75
